Acton, Maine
Current Conditions -  °F | °C
As of 9:15 AM on Saturday 01 Nov 2014 (Local Time) from KSFM Reporting Station
Overcast Overcast  
Wind Chill: 33°   Ceiling: 700
Heat Index: 41°   Visibility: 9mi
Dew Point: 34°   Wind: 15mph
Humidity: 76%   Direction: 10°N
Pressure: 29.94"   Gusts: NA
Location:  43.53°N, 70.91°W
Report Text: KSFM 011315Z AUTO 01013KT 9SM OVC007 05/01 A2994 RMK AO1
Loading
Personal Weather Stations






























Interactive Weather Map
Tropical Storm Tracking
New forecast layout! Learn more

10-Day Weather Forecast

Advertisements
Track Severe Weather on mobile